sensor_id;sensor_type;location;lat;lon;timestamp;P1;durP1;ratioP1;P2;durP2;ratioP2
22268;SDS011;11303;50.772;19.670;2024-01-16T09:05:05;65.90;;;20.75;;
22268;SDS011;11303;50.772;19.670;2024-01-16T09:07:06;57.75;;;24.45;;
22268;SDS011;11303;50.772;19.670;2024-01-16T09:12:11;51.38;;;16.05;;
22268;SDS011;11303;50.772;19.670;2024-01-16T09:14:15;40.20;;;16.50;;
22268;SDS011;11303;50.772;19.670;2024-01-16T09:16:17;29.85;;;15.75;;
22268;SDS011;11303;50.772;19.670;2024-01-16T09:18:18;53.20;;;24.25;;
22268;SDS011;11303;50.772;19.670;2024-01-16T09:20:20;37.08;;;15.85;;
22268;SDS011;11303;50.772;19.670;2024-01-16T09:22:22;59.20;;;17.95;;
22268;SDS011;11303;50.772;19.670;2024-01-16T09:24:24;30.10;;;11.73;;
22268;SDS011;11303;50.772;19.670;2024-01-16T09:26:25;26.33;;;9.23;;
22268;SDS011;11303;50.772;19.670;2024-01-16T09:28:27;34.38;;;12.68;;
22268;SDS011;11303;50.772;19.670;2024-01-16T09:30:30;34.85;;;12.30;;
22268;SDS011;11303;50.772;19.670;2024-01-16T09:32:31;28.65;;;10.38;;
22268;SDS011;11303;50.772;19.670;2024-01-16T09:34:33;36.20;;;16.23;;
22268;SDS011;11303;50.772;19.670;2024-01-16T09:36:34;19.60;;;8.25;;
22268;SDS011;11303;50.772;19.670;2024-01-16T09:38:38;26.50;;;10.43;;
22268;SDS011;11303;50.772;19.670;2024-01-16T09:40:40;25.90;;;10.32;;
22268;SDS011;11303;50.772;19.670;2024-01-16T09:42:42;23.52;;;10.65;;
22268;SDS011;11303;50.772;19.670;2024-01-16T09:44:43;33.17;;;11.75;;
22268;SDS011;11303;50.772;19.670;2024-01-16T09:46:45;32.10;;;11.88;;
22268;SDS011;11303;50.772;19.670;2024-01-16T09:48:52;21.95;;;11.10;;
22268;SDS011;11303;50.772;19.670;2024-01-16T09:50:57;14.35;;;6.07;;
22268;SDS011;11303;50.772;19.670;2024-01-16T09:52:59;14.25;;;6.72;;
22268;SDS011;11303;50.772;19.670;2024-01-16T09:55:01;23.55;;;9.65;;
22268;SDS011;11303;50.772;19.670;2024-01-16T09:57:02;19.02;;;9.27;;
22268;SDS011;11303;50.772;19.670;2024-01-16T09:59:08;24.27;;;8.88;;
22268;SDS011;11303;50.772;19.670;2024-01-16T10:01:11;18.05;;;8.90;;
22268;SDS011;11303;50.772;19.670;2024-01-16T10:03:14;15.05;;;7.20;;
22268;SDS011;11303;50.772;19.670;2024-01-16T10:05:17;26.92;;;9.77;;
22268;SDS011;11303;50.772;19.670;2024-01-16T10:07:18;23.90;;;9.80;;
22268;SDS011;11303;50.772;19.670;2024-01-16T10:09:27;22.40;;;8.65;;
22268;SDS011;11303;50.772;19.670;2024-01-16T10:11:29;72.30;;;43.03;;
22268;SDS011;11303;50.772;19.670;2024-01-16T10:13:31;28.08;;;11.60;;
22268;SDS011;11303;50.772;19.670;2024-01-16T10:15:34;14.32;;;7.05;;
22268;SDS011;11303;50.772;19.670;2024-01-16T10:17:40;20.17;;;9.25;;
22268;SDS011;11303;50.772;19.670;2024-01-16T10:19:51;17.42;;;7.65;;
22268;SDS011;11303;50.772;19.670;2024-01-16T10:22:01;19.75;;;9.13;;
22268;SDS011;11303;50.772;19.670;2024-01-16T10:24:13;25.65;;;10.82;;
22268;SDS011;11303;50.772;19.670;2024-01-16T10:26:14;44.35;;;14.13;;
22268;SDS011;11303;50.772;19.670;2024-01-16T10:28:19;59.38;;;15.25;;
22268;SDS011;11303;50.772;19.670;2024-01-16T10:30:26;22.52;;;8.27;;
22268;SDS011;11303;50.772;19.670;2024-01-16T10:32:32;23.95;;;8.95;;
22268;SDS011;11303;50.772;19.670;2024-01-16T10:34:39;29.40;;;10.18;;
22268;SDS011;11303;50.772;19.670;2024-01-16T10:36:41;47.20;;;13.10;;
22268;SDS011;11303;50.772;19.670;2024-01-16T10:38:43;53.58;;;14.20;;
22268;SDS011;11303;50.772;19.670;2024-01-16T10:40:45;47.22;;;11.30;;
22268;SDS011;11303;50.772;19.670;2024-01-16T10:42:56;53.83;;;12.50;;
22268;SDS011;11303;50.772;19.670;2024-01-16T10:44:59;73.68;;;20.10;;
22268;SDS011;11303;50.772;19.670;2024-01-16T10:47:10;46.40;;;14.38;;
22268;SDS011;11303;50.772;19.670;2024-01-16T10:49:17;40.05;;;14.80;;
22268;SDS011;11303;50.772;19.670;2024-01-16T10:51:19;43.67;;;22.45;;
22268;SDS011;11303;50.772;19.670;2024-01-16T10:53:21;36.22;;;16.00;;
22268;SDS011;11303;50.772;19.670;2024-01-16T10:55:27;76.82;;;26.58;;
22268;SDS011;11303;50.772;19.670;2024-01-16T10:57:33;93.35;;;34.88;;
22268;SDS011;11303;50.772;19.670;2024-01-16T10:59:37;99.22;;;31.92;;
22268;SDS011;11303;50.772;19.670;2024-01-16T11:01:45;80.93;;;23.77;;
22268;SDS011;11303;50.772;19.670;2024-01-16T11:03:52;64.03;;;19.02;;
22268;SDS011;11303;50.772;19.670;2024-01-16T11:05:58;97.68;;;25.65;;
22268;SDS011;11303;50.772;19.670;2024-01-16T11:08:02;82.72;;;25.13;;
22268;SDS011;11303;50.772;19.670;2024-01-16T11:10:05;55.10;;;19.17;;
22268;SDS011;11303;50.772;19.670;2024-01-16T11:12:09;47.55;;;15.07;;
22268;SDS011;11303;50.772;19.670;2024-01-16T11:14:14;89.53;;;23.20;;
22268;SDS011;11303;50.772;19.670;2024-01-16T11:16:16;55.47;;;19.08;;
22268;SDS011;11303;50.772;19.670;2024-01-16T11:18:19;71.03;;;22.08;;
22268;SDS011;11303;50.772;19.670;2024-01-16T11:20:22;70.45;;;23.15;;
22268;SDS011;11303;50.772;19.670;2024-01-16T11:22:45;32.53;;;12.35;;
22268;SDS011;11303;50.772;19.670;2024-01-16T11:25:07;25.33;;;10.98;;
22268;SDS011;11303;50.772;19.670;2024-01-16T11:27:22;35.90;;;11.90;;
22268;SDS011;11303;50.772;19.670;2024-01-16T11:35:37;43.85;;;13.60;;
22268;SDS011;11303;50.772;19.670;2024-01-16T11:37:40;39.67;;;13.00;;
22268;SDS011;11303;50.772;19.670;2024-01-16T11:39:44;37.65;;;12.95;;
22268;SDS011;11303;50.772;19.670;2024-01-16T11:41:52;27.83;;;9.93;;
22268;SDS011;11303;50.772;19.670;2024-01-16T11:43:55;30.80;;;10.82;;
22268;SDS011;11303;50.772;19.670;2024-01-16T11:45:57;29.08;;;12.57;;
22268;SDS011;11303;50.772;19.670;2024-01-16T11:48:16;27.75;;;10.75;;
22268;SDS011;11303;50.772;19.670;2024-01-16T11:50:27;39.60;;;12.55;;
22268;SDS011;11303;50.772;19.670;2024-01-16T11:52:42;35.75;;;13.63;;
22268;SDS011;11303;50.772;19.670;2024-01-16T11:54:45;43.78;;;13.95;;
22268;SDS011;11303;50.772;19.670;2024-01-16T12:01:19;442.33;;;196.20;;
22268;SDS011;11303;50.772;19.670;2024-01-16T12:03:23;73.90;;;30.98;;
22268;SDS011;11303;50.772;19.670;2024-01-16T12:05:35;68.18;;;25.23;;
22268;SDS011;11303;50.772;19.670;2024-01-16T12:07:46;53.80;;;18.40;;
22268;SDS011;11303;50.772;19.670;2024-01-16T12:09:52;255.15;;;162.98;;
22268;SDS011;11303;50.772;19.670;2024-01-16T12:11:57;244.85;;;174.02;;
22268;SDS011;11303;50.772;19.670;2024-01-16T12:14:00;145.35;;;98.68;;
22268;SDS011;11303;50.772;19.670;2024-01-16T12:16:03;93.13;;;54.17;;
22268;SDS011;11303;50.772;19.670;2024-01-16T12:18:06;112.15;;;60.00;;
22268;SDS011;11303;50.772;19.670;2024-01-16T12:20:20;107.18;;;59.63;;
22268;SDS011;11303;50.772;19.670;2024-01-16T12:22:23;52.03;;;28.77;;
22268;SDS011;11303;50.772;19.670;2024-01-16T12:24:24;56.55;;;28.70;;
22268;SDS011;11303;50.772;19.670;2024-01-16T12:26:26;181.98;;;143.20;;
22268;SDS011;11303;50.772;19.670;2024-01-16T12:28:28;58.80;;;39.60;;
22268;SDS011;11303;50.772;19.670;2024-01-16T12:30:34;32.28;;;12.82;;
22268;SDS011;11303;50.772;19.670;2024-01-16T12:32:37;40.42;;;13.73;;
22268;SDS011;11303;50.772;19.670;2024-01-16T12:34:46;26.55;;;13.98;;
22268;SDS011;11303;50.772;19.670;2024-01-16T12:36:50;29.60;;;11.93;;
22268;SDS011;11303;50.772;19.670;2024-01-16T12:39:06;30.35;;;12.13;;
22268;SDS011;11303;50.772;19.670;2024-01-16T12:41:09;41.45;;;14.80;;
22268;SDS011;11303;50.772;19.670;2024-01-16T12:43:11;37.17;;;12.80;;
22268;SDS011;11303;50.772;19.670;2024-01-16T12:45:13;29.42;;;12.13;;
22268;SDS011;11303;50.772;19.670;2024-01-16T12:47:15;683.67;;;408.55;;
22268;SDS011;11303;50.772;19.670;2024-01-16T12:49:17;138.38;;;72.95;;
22268;SDS011;11303;50.772;19.670;2024-01-16T12:51:20;91.57;;;54.85;;
22268;SDS011;11303;50.772;19.670;2024-01-16T12:53:25;45.17;;;26.67;;
22268;SDS011;11303;50.772;19.670;2024-01-16T12:55:26;63.92;;;46.92;;
22268;SDS011;11303;50.772;19.670;2024-01-16T12:57:28;32.88;;;15.68;;
22268;SDS011;11303;50.772;19.670;2024-01-16T12:59:30;18.02;;;8.20;;
22268;SDS011;11303;50.772;19.670;2024-01-16T13:01:32;23.90;;;9.48;;
22268;SDS011;11303;50.772;19.670;2024-01-16T13:03:40;15.82;;;9.82;;
22268;SDS011;11303;50.772;19.670;2024-01-16T13:05:42;41.63;;;17.35;;
22268;SDS011;11303;50.772;19.670;2024-01-16T13:07:44;45.47;;;20.48;;
22268;SDS011;11303;50.772;19.670;2024-01-16T13:09:46;31.70;;;11.95;;
22268;SDS011;11303;50.772;19.670;2024-01-16T13:11:49;29.83;;;11.35;;
22268;SDS011;11303;50.772;19.670;2024-01-16T13:13:58;28.52;;;10.55;;
22268;SDS011;11303;50.772;19.670;2024-01-16T13:16:05;25.98;;;11.77;;
22268;SDS011;11303;50.772;19.670;2024-01-16T13:18:22;30.13;;;12.93;;
22268;SDS011;11303;50.772;19.670;2024-01-16T13:20:25;33.75;;;12.95;;
22268;SDS011;11303;50.772;19.670;2024-01-16T13:22:26;58.28;;;29.08;;
22268;SDS011;11303;50.772;19.670;2024-01-16T13:24:43;30.05;;;14.85;;
22268;SDS011;11303;50.772;19.670;2024-01-16T13:26:58;21.90;;;11.23;;
22268;SDS011;11303;50.772;19.670;2024-01-16T13:29:00;39.00;;;24.15;;
22268;SDS011;11303;50.772;19.670;2024-01-16T13:31:01;18.52;;;9.70;;
22268;SDS011;11303;50.772;19.670;2024-01-16T13:33:05;19.05;;;7.47;;
22268;SDS011;11303;50.772;19.670;2024-01-16T13:35:07;19.75;;;7.13;;
22268;SDS011;11303;50.772;19.670;2024-01-16T13:37:10;27.55;;;15.57;;
22268;SDS011;11303;50.772;19.670;2024-01-16T13:39:16;84.40;;;29.95;;
22268;SDS011;11303;50.772;19.670;2024-01-16T13:41:18;53.05;;;24.52;;
22268;SDS011;11303;50.772;19.670;2024-01-16T13:43:20;122.75;;;39.25;;
22268;SDS011;11303;50.772;19.670;2024-01-16T13:45:22;45.42;;;18.90;;
22268;SDS011;11303;50.772;19.670;2024-01-16T13:47:24;183.52;;;78.32;;
22268;SDS011;11303;50.772;19.670;2024-01-16T13:49:25;67.63;;;25.20;;
22268;SDS011;11303;50.772;19.670;2024-01-16T13:51:27;42.42;;;16.17;;
22268;SDS011;11303;50.772;19.670;2024-01-16T13:53:29;38.38;;;14.65;;
22268;SDS011;11303;50.772;19.670;2024-01-16T13:55:31;47.22;;;17.45;;
22268;SDS011;11303;50.772;19.670;2024-01-16T13:57:35;32.85;;;11.77;;
22268;SDS011;11303;50.772;19.670;2024-01-16T13:59:38;45.70;;;17.90;;
22268;SDS011;11303;50.772;19.670;2024-01-16T14:01:40;35.03;;;14.70;;
22268;SDS011;11303;50.772;19.670;2024-01-16T14:03:42;28.98;;;12.90;;
22268;SDS011;11303;50.772;19.670;2024-01-16T14:05:45;34.85;;;16.08;;
22268;SDS011;11303;50.772;19.670;2024-01-16T14:07:50;40.42;;;16.88;;
22268;SDS011;11303;50.772;19.670;2024-01-16T14:09:53;48.05;;;16.98;;
22268;SDS011;11303;50.772;19.670;2024-01-16T14:11:54;46.42;;;17.35;;
22268;SDS011;11303;50.772;19.670;2024-01-16T14:13:56;35.75;;;13.55;;
22268;SDS011;11303;50.772;19.670;2024-01-16T14:15:58;41.00;;;14.63;;
22268;SDS011;11303;50.772;19.670;2024-01-16T14:18:00;31.55;;;11.40;;
22268;SDS011;11303;50.772;19.670;2024-01-16T14:20:02;38.17;;;12.20;;
22268;SDS011;11303;50.772;19.670;2024-01-16T14:22:06;40.10;;;12.95;;
22268;SDS011;11303;50.772;19.670;2024-01-16T14:24:08;26.65;;;12.00;;
22268;SDS011;11303;50.772;19.670;2024-01-16T14:26:11;54.47;;;17.10;;
22268;SDS011;11303;50.772;19.670;2024-01-16T14:28:12;52.97;;;15.57;;
22268;SDS011;11303;50.772;19.670;2024-01-16T14:30:24;69.78;;;17.85;;
22268;SDS011;11303;50.772;19.670;2024-01-16T14:32:26;55.08;;;18.63;;
22268;SDS011;11303;50.772;19.670;2024-01-16T14:34:28;92.97;;;26.60;;
22268;SDS011;11303;50.772;19.670;2024-01-16T14:36:29;99.93;;;31.00;;
22268;SDS011;11303;50.772;19.670;2024-01-16T14:38:31;54.95;;;19.10;;
22268;SDS011;11303;50.772;19.670;2024-01-16T14:40:33;94.90;;;32.63;;
22268;SDS011;11303;50.772;19.670;2024-01-16T14:42:35;73.90;;;26.48;;
22268;SDS011;11303;50.772;19.670;2024-01-16T14:44:36;44.90;;;18.23;;
22268;SDS011;11303;50.772;19.670;2024-01-16T14:46:40;27.17;;;12.80;;
22268;SDS011;11303;50.772;19.670;2024-01-16T14:48:44;29.50;;;12.27;;
22268;SDS011;11303;50.772;19.670;2024-01-16T14:50:49;42.90;;;18.17;;
22268;SDS011;11303;50.772;19.670;2024-01-16T14:52:52;62.28;;;24.70;;
22268;SDS011;11303;50.772;19.670;2024-01-16T14:54:54;59.47;;;24.38;;
22268;SDS011;11303;50.772;19.670;2024-01-16T14:56:55;77.40;;;30.23;;
22268;SDS011;11303;50.772;19.670;2024-01-16T14:58:57;86.63;;;29.10;;
22268;SDS011;11303;50.772;19.670;2024-01-16T15:00:59;51.35;;;21.80;;
22268;SDS011;11303;50.772;19.670;2024-01-16T15:03:00;59.55;;;23.85;;
22268;SDS011;11303;50.772;19.670;2024-01-16T15:05:03;70.70;;;27.25;;
22268;SDS011;11303;50.772;19.670;2024-01-16T15:07:05;72.15;;;27.65;;
22268;SDS011;11303;50.772;19.670;2024-01-16T15:09:07;61.20;;;25.58;;
22268;SDS011;11303;50.772;19.670;2024-01-16T15:11:11;66.25;;;24.58;;
22268;SDS011;11303;50.772;19.670;2024-01-16T15:13:13;73.93;;;29.83;;
22268;SDS011;11303;50.772;19.670;2024-01-16T15:15:15;55.33;;;23.58;;
22268;SDS011;11303;50.772;19.670;2024-01-16T15:17:17;62.25;;;22.50;;
22268;SDS011;11303;50.772;19.670;2024-01-16T15:19:21;76.72;;;29.27;;
22268;SDS011;11303;50.772;19.670;2024-01-16T15:21:23;109.70;;;38.63;;
22268;SDS011;11303;50.772;19.670;2024-01-16T15:23:24;121.57;;;39.78;;
22268;SDS011;11303;50.772;19.670;2024-01-16T15:25:26;132.35;;;45.92;;
22268;SDS011;11303;50.772;19.670;2024-01-16T15:27:28;165.70;;;60.08;;
22268;SDS011;11303;50.772;19.670;2024-01-16T15:29:29;158.45;;;59.58;;
22268;SDS011;11303;50.772;19.670;2024-01-16T15:31:31;118.32;;;41.90;;
22268;SDS011;11303;50.772;19.670;2024-01-16T15:33:32;114.50;;;36.67;;
22268;SDS011;11303;50.772;19.670;2024-01-16T15:35:36;112.38;;;38.38;;
22268;SDS011;11303;50.772;19.670;2024-01-16T15:37:38;106.80;;;34.17;;
22268;SDS011;11303;50.772;19.670;2024-01-16T15:39:40;109.93;;;38.90;;
22268;SDS011;11303;50.772;19.670;2024-01-16T15:41:42;145.70;;;50.20;;
22268;SDS011;11303;50.772;19.670;2024-01-16T15:43:45;234.63;;;93.03;;
22268;SDS011;11303;50.772;19.670;2024-01-16T15:45:46;212.70;;;76.93;;
22268;SDS011;11303;50.772;19.670;2024-01-16T15:47:48;217.63;;;86.18;;
22268;SDS011;11303;50.772;19.670;2024-01-16T15:49:49;311.45;;;121.95;;
22268;SDS011;11303;50.772;19.670;2024-01-16T15:51:51;697.95;;;364.77;;
22268;SDS011;11303;50.772;19.670;2024-01-16T15:53:53;309.13;;;124.20;;
22268;SDS011;11303;50.772;19.670;2024-01-16T15:55:55;334.98;;;132.52;;
22268;SDS011;11303;50.772;19.670;2024-01-16T15:57:56;832.47;;;434.55;;
22268;SDS011;11303;50.772;19.670;2024-01-16T15:59:58;216.68;;;82.63;;
22268;SDS011;11303;50.772;19.670;2024-01-16T16:02:00;266.85;;;107.75;;
22268;SDS011;11303;50.772;19.670;2024-01-16T16:04:04;380.42;;;169.05;;
22268;SDS011;11303;50.772;19.670;2024-01-16T16:06:06;220.25;;;74.43;;
22268;SDS011;11303;50.772;19.670;2024-01-16T16:08:10;225.40;;;70.57;;
22268;SDS011;11303;50.772;19.670;2024-01-16T16:10:12;199.77;;;68.43;;
22268;SDS011;11303;50.772;19.670;2024-01-16T16:12:14;174.65;;;55.15;;
22268;SDS011;11303;50.772;19.670;2024-01-16T16:14:19;158.50;;;48.38;;
22268;SDS011;11303;50.772;19.670;2024-01-16T16:16:21;174.57;;;55.28;;
22268;SDS011;11303;50.772;19.670;2024-01-16T16:18:22;210.23;;;69.25;;
22268;SDS011;11303;50.772;19.670;2024-01-16T16:20:26;187.85;;;57.03;;
22268;SDS011;11303;50.772;19.670;2024-01-16T16:22:27;250.55;;;107.88;;
22268;SDS011;11303;50.772;19.670;2024-01-16T16:24:29;257.52;;;148.20;;
22268;SDS011;11303;50.772;19.670;2024-01-16T16:26:33;195.65;;;76.45;;
22268;SDS011;11303;50.772;19.670;2024-01-16T16:28:35;183.93;;;71.65;;
22268;SDS011;11303;50.772;19.670;2024-01-16T16:30:36;153.23;;;59.05;;
22268;SDS011;11303;50.772;19.670;2024-01-16T16:32:38;182.43;;;62.90;;
22268;SDS011;11303;50.772;19.670;2024-01-16T16:34:40;241.40;;;83.05;;
22268;SDS011;11303;50.772;19.670;2024-01-16T16:36:42;242.55;;;79.32;;
22268;SDS011;11303;50.772;19.670;2024-01-16T16:38:44;245.75;;;75.28;;
22268;SDS011;11303;50.772;19.670;2024-01-16T16:40:46;347.17;;;109.03;;
22268;SDS011;11303;50.772;19.670;2024-01-16T16:42:48;262.98;;;81.63;;
22268;SDS011;11303;50.772;19.670;2024-01-16T16:44:50;258.10;;;78.15;;
22268;SDS011;11303;50.772;19.670;2024-01-16T16:46:52;251.95;;;74.00;;
22268;SDS011;11303;50.772;19.670;2024-01-16T16:48:53;337.92;;;93.32;;
22268;SDS011;11303;50.772;19.670;2024-01-16T16:50:55;328.98;;;99.63;;
22268;SDS011;11303;50.772;19.670;2024-01-16T16:52:57;388.33;;;113.13;;
22268;SDS011;11303;50.772;19.670;2024-01-16T16:54:59;345.27;;;105.18;;
22268;SDS011;11303;50.772;19.670;2024-01-16T16:57:01;356.90;;;111.07;;
22268;SDS011;11303;50.772;19.670;2024-01-16T16:59:02;349.20;;;109.40;;
22268;SDS011;11303;50.772;19.670;2024-01-16T17:01:04;369.73;;;119.65;;
22268;SDS011;11303;50.772;19.670;2024-01-16T17:03:06;331.70;;;118.28;;
22268;SDS011;11303;50.772;19.670;2024-01-16T17:05:09;262.92;;;104.43;;
22268;SDS011;11303;50.772;19.670;2024-01-16T17:07:10;218.98;;;93.82;;
22268;SDS011;11303;50.772;19.670;2024-01-16T17:09:14;190.20;;;80.90;;
22268;SDS011;11303;50.772;19.670;2024-01-16T17:11:21;231.73;;;91.75;;
22268;SDS011;11303;50.772;19.670;2024-01-16T17:13:23;229.82;;;85.68;;
22268;SDS011;11303;50.772;19.670;2024-01-16T17:15:26;119.68;;;54.70;;
22268;SDS011;11303;50.772;19.670;2024-01-16T17:17:28;68.82;;;33.83;;
22268;SDS011;11303;50.772;19.670;2024-01-16T17:19:33;52.30;;;23.75;;
22268;SDS011;11303;50.772;19.670;2024-01-16T17:21:35;42.28;;;21.10;;
22268;SDS011;11303;50.772;19.670;2024-01-16T17:23:38;46.67;;;22.73;;
22268;SDS011;11303;50.772;19.670;2024-01-16T17:25:39;65.32;;;27.90;;
22268;SDS011;11303;50.772;19.670;2024-01-16T17:27:41;169.50;;;62.75;;
22268;SDS011;11303;50.772;19.670;2024-01-16T17:29:42;257.73;;;88.78;;
22268;SDS011;11303;50.772;19.670;2024-01-16T17:31:44;277.17;;;94.38;;
22268;SDS011;11303;50.772;19.670;2024-01-16T17:33:46;342.00;;;105.95;;
22268;SDS011;11303;50.772;19.670;2024-01-16T17:35:48;480.67;;;137.07;;
22268;SDS011;11303;50.772;19.670;2024-01-16T17:37:50;347.67;;;108.15;;
22268;SDS011;11303;50.772;19.670;2024-01-16T17:39:51;249.80;;;94.03;;
22268;SDS011;11303;50.772;19.670;2024-01-16T17:41:53;237.90;;;98.75;;
22268;SDS011;11303;50.772;19.670;2024-01-16T17:43:55;261.50;;;95.45;;
22268;SDS011;11303;50.772;19.670;2024-01-16T17:45:56;242.18;;;103.97;;
22268;SDS011;11303;50.772;19.670;2024-01-16T17:47:59;339.25;;;128.00;;
22268;SDS011;11303;50.772;19.670;2024-01-16T17:50:01;489.63;;;171.27;;
22268;SDS011;11303;50.772;19.670;2024-01-16T17:52:04;556.28;;;199.38;;
22268;SDS011;11303;50.772;19.670;2024-01-16T17:54:10;468.30;;;162.73;;
22268;SDS011;11303;50.772;19.670;2024-01-16T17:56:14;385.13;;;136.93;;
22268;SDS011;11303;50.772;19.670;2024-01-16T17:58:17;324.25;;;119.57;;
22268;SDS011;11303;50.772;19.670;2024-01-16T18:00:22;285.13;;;112.50;;
22268;SDS011;11303;50.772;19.670;2024-01-16T18:02:25;278.35;;;111.25;;
22268;SDS011;11303;50.772;19.670;2024-01-16T18:04:28;291.55;;;115.40;;
22268;SDS011;11303;50.772;19.670;2024-01-16T18:06:30;275.77;;;115.65;;
22268;SDS011;11303;50.772;19.670;2024-01-16T18:08:35;307.33;;;133.85;;
22268;SDS011;11303;50.772;19.670;2024-01-16T18:10:39;282.27;;;122.35;;
22268;SDS011;11303;50.772;19.670;2024-01-16T18:12:40;233.27;;;107.13;;
22268;SDS011;11303;50.772;19.670;2024-01-16T18:14:43;214.52;;;95.28;;
22268;SDS011;11303;50.772;19.670;2024-01-16T18:16:44;225.35;;;105.63;;
22268;SDS011;11303;50.772;19.670;2024-01-16T18:18:50;187.50;;;99.32;;
22268;SDS011;11303;50.772;19.670;2024-01-16T18:20:53;178.85;;;87.10;;
22268;SDS011;11303;50.772;19.670;2024-01-16T18:22:55;210.70;;;92.72;;
22268;SDS011;11303;50.772;19.670;2024-01-16T18:24:57;204.70;;;84.65;;
22268;SDS011;11303;50.772;19.670;2024-01-16T18:26:59;286.83;;;104.28;;
22268;SDS011;11303;50.772;19.670;2024-01-16T18:29:00;301.48;;;114.60;;
22268;SDS011;11303;50.772;19.670;2024-01-16T18:31:02;273.25;;;110.28;;
22268;SDS011;11303;50.772;19.670;2024-01-16T18:33:05;266.35;;;106.90;;
22268;SDS011;11303;50.772;19.670;2024-01-16T18:35:06;451.92;;;139.15;;
22268;SDS011;11303;50.772;19.670;2024-01-16T18:37:10;889.03;;;435.35;;
22268;SDS011;11303;50.772;19.670;2024-01-16T18:39:11;861.20;;;437.83;;
22268;SDS011;11303;50.772;19.670;2024-01-16T18:41:14;796.85;;;374.45;;
22268;SDS011;11303;50.772;19.670;2024-01-16T18:43:15;671.45;;;273.48;;
22268;SDS011;11303;50.772;19.670;2024-01-16T18:45:17;421.58;;;140.70;;
22268;SDS011;11303;50.772;19.670;2024-01-16T18:47:19;400.88;;;121.20;;
22268;SDS011;11303;50.772;19.670;2024-01-16T18:49:25;238.75;;;81.88;;
22268;SDS011;11303;50.772;19.670;2024-01-16T18:51:28;315.80;;;105.03;;
22268;SDS011;11303;50.772;19.670;2024-01-16T18:53:29;263.75;;;87.80;;
22268;SDS011;11303;50.772;19.670;2024-01-16T18:55:32;244.93;;;82.32;;
22268;SDS011;11303;50.772;19.670;2024-01-16T18:57:36;233.90;;;85.70;;
22268;SDS011;11303;50.772;19.670;2024-01-16T18:59:39;186.70;;;73.28;;
22268;SDS011;11303;50.772;19.670;2024-01-16T19:01:40;341.63;;;112.93;;
22268;SDS011;11303;50.772;19.670;2024-01-16T19:03:42;232.10;;;85.90;;
22268;SDS011;11303;50.772;19.670;2024-01-16T19:05:44;201.40;;;81.60;;
22268;SDS011;11303;50.772;19.670;2024-01-16T19:07:46;176.73;;;69.78;;
22268;SDS011;11303;50.772;19.670;2024-01-16T19:09:49;160.82;;;68.97;;
22268;SDS011;11303;50.772;19.670;2024-01-16T19:11:50;147.63;;;65.93;;
22268;SDS011;11303;50.772;19.670;2024-01-16T19:13:55;145.55;;;76.63;;
22268;SDS011;11303;50.772;19.670;2024-01-16T19:15:56;135.00;;;68.78;;
22268;SDS011;11303;50.772;19.670;2024-01-16T19:17:58;110.60;;;50.35;;
22268;SDS011;11303;50.772;19.670;2024-01-16T19:20:00;110.55;;;48.08;;
22268;SDS011;11303;50.772;19.670;2024-01-16T19:22:10;143.45;;;61.80;;
22268;SDS011;11303;50.772;19.670;2024-01-16T19:24:12;123.88;;;56.72;;
22268;SDS011;11303;50.772;19.670;2024-01-16T19:26:15;127.07;;;54.25;;
22268;SDS011;11303;50.772;19.670;2024-01-16T19:28:18;127.05;;;50.95;;
22268;SDS011;11303;50.772;19.670;2024-01-16T19:30:20;125.63;;;57.22;;
22268;SDS011;11303;50.772;19.670;2024-01-16T19:32:22;83.22;;;40.83;;
22268;SDS011;11303;50.772;19.670;2024-01-16T19:34:23;61.78;;;28.65;;
22268;SDS011;11303;50.772;19.670;2024-01-16T19:36:27;46.38;;;20.42;;
22268;SDS011;11303;50.772;19.670;2024-01-16T19:38:29;41.38;;;19.90;;
22268;SDS011;11303;50.772;19.670;2024-01-16T19:40:32;36.65;;;19.27;;
22268;SDS011;11303;50.772;19.670;2024-01-16T19:42:33;37.42;;;19.10;;
22268;SDS011;11303;50.772;19.670;2024-01-16T19:44:36;35.15;;;18.98;;
22268;SDS011;11303;50.772;19.670;2024-01-16T19:46:43;50.15;;;23.77;;
22268;SDS011;11303;50.772;19.670;2024-01-16T19:48:45;72.35;;;27.65;;
22268;SDS011;11303;50.772;19.670;2024-01-16T19:50:48;82.03;;;34.83;;
22268;SDS011;11303;50.772;19.670;2024-01-16T19:52:51;103.95;;;40.15;;
22268;SDS011;11303;50.772;19.670;2024-01-16T19:54:56;131.18;;;44.45;;
22268;SDS011;11303;50.772;19.670;2024-01-16T19:57:02;138.00;;;43.63;;
22268;SDS011;11303;50.772;19.670;2024-01-16T19:59:03;126.72;;;42.47;;
22268;SDS011;11303;50.772;19.670;2024-01-16T20:01:08;112.20;;;38.05;;
22268;SDS011;11303;50.772;19.670;2024-01-16T20:03:09;119.97;;;45.33;;
22268;SDS011;11303;50.772;19.670;2024-01-16T20:05:13;119.88;;;46.03;;
22268;SDS011;11303;50.772;19.670;2024-01-16T20:07:17;110.95;;;42.22;;
22268;SDS011;11303;50.772;19.670;2024-01-16T20:09:19;133.88;;;50.60;;
22268;SDS011;11303;50.772;19.670;2024-01-16T20:11:30;148.52;;;53.42;;
22268;SDS011;11303;50.772;19.670;2024-01-16T20:13:33;148.10;;;54.70;;
22268;SDS011;11303;50.772;19.670;2024-01-16T20:15:35;209.95;;;76.95;;
22268;SDS011;11303;50.772;19.670;2024-01-16T20:17:36;193.50;;;77.10;;
22268;SDS011;11303;50.772;19.670;2024-01-16T20:19:39;163.20;;;66.10;;
22268;SDS011;11303;50.772;19.670;2024-01-16T20:21:40;154.70;;;55.00;;
22268;SDS011;11303;50.772;19.670;2024-01-16T20:23:45;111.10;;;41.70;;
22268;SDS011;11303;50.772;19.670;2024-01-16T20:25:46;96.18;;;37.55;;
22268;SDS011;11303;50.772;19.670;2024-01-16T20:27:48;93.03;;;38.53;;
22268;SDS011;11303;50.772;19.670;2024-01-16T20:29:49;147.15;;;55.22;;
22268;SDS011;11303;50.772;19.670;2024-01-16T20:31:51;340.42;;;112.63;;
22268;SDS011;11303;50.772;19.670;2024-01-16T20:33:53;260.80;;;89.65;;
22268;SDS011;11303;50.772;19.670;2024-01-16T20:35:55;216.27;;;74.35;;
22268;SDS011;11303;50.772;19.670;2024-01-16T20:37:56;115.45;;;46.58;;
22268;SDS011;11303;50.772;19.670;2024-01-16T20:39:58;84.03;;;35.55;;
22268;SDS011;11303;50.772;19.670;2024-01-16T20:42:00;86.30;;;34.30;;
22268;SDS011;11303;50.772;19.670;2024-01-16T20:44:02;102.55;;;39.03;;
22268;SDS011;11303;50.772;19.670;2024-01-16T20:46:04;88.68;;;37.72;;
22268;SDS011;11303;50.772;19.670;2024-01-16T20:48:06;122.53;;;47.67;;
22268;SDS011;11303;50.772;19.670;2024-01-16T20:50:08;105.70;;;41.97;;
22268;SDS011;11303;50.772;19.670;2024-01-16T20:52:13;104.43;;;40.28;;
22268;SDS011;11303;50.772;19.670;2024-01-16T20:54:16;95.53;;;36.78;;
22268;SDS011;11303;50.772;19.670;2024-01-16T20:56:18;102.72;;;40.05;;
22268;SDS011;11303;50.772;19.670;2024-01-16T20:58:20;75.93;;;32.25;;
22268;SDS011;11303;50.772;19.670;2024-01-16T21:00:22;100.78;;;41.10;;
22268;SDS011;11303;50.772;19.670;2024-01-16T21:02:24;105.82;;;39.80;;